sensor_id;sensor_type;location;lat;lon;timestamp;P1;durP1;ratioP1;P2;durP2;ratioP2
73150;SDS011;61354;50.758;6.106;2023-05-08T00:00:37;11.40;;;7.10;;
73150;SDS011;61354;50.758;6.106;2023-05-08T00:03:03;9.95;;;7.53;;
73150;SDS011;61354;50.758;6.106;2023-05-08T00:05:29;10.90;;;7.35;;
73150;SDS011;61354;50.758;6.106;2023-05-08T00:07:55;11.05;;;8.20;;
73150;SDS011;61354;50.758;6.106;2023-05-08T00:10:28;10.32;;;7.57;;
73150;SDS011;61354;50.758;6.106;2023-05-08T00:12:54;11.85;;;7.63;;
73150;SDS011;61354;50.758;6.106;2023-05-08T00:15:21;13.45;;;7.25;;
73150;SDS011;61354;50.758;6.106;2023-05-08T00:17:47;9.75;;;7.57;;
73150;SDS011;61354;50.758;6.106;2023-05-08T00:20:12;10.18;;;7.53;;
73150;SDS011;61354;50.758;6.106;2023-05-08T00:22:38;10.98;;;7.18;;
73150;SDS011;61354;50.758;6.106;2023-05-08T00:25:04;11.60;;;7.43;;
73150;SDS011;61354;50.758;6.106;2023-05-08T00:27:30;12.93;;;7.32;;
73150;SDS011;61354;50.758;6.106;2023-05-08T00:29:56;9.57;;;7.07;;
73150;SDS011;61354;50.758;6.106;2023-05-08T00:32:22;9.57;;;7.35;;
73150;SDS011;61354;50.758;6.106;2023-05-08T00:34:48;10.75;;;7.50;;
73150;SDS011;61354;50.758;6.106;2023-05-08T00:37:14;11.57;;;7.70;;
73150;SDS011;61354;50.758;6.106;2023-05-08T00:39:40;11.45;;;6.95;;
73150;SDS011;61354;50.758;6.106;2023-05-08T00:42:05;11.05;;;6.90;;
73150;SDS011;61354;50.758;6.106;2023-05-08T00:44:31;9.48;;;6.82;;
73150;SDS011;61354;50.758;6.106;2023-05-08T00:46:57;10.48;;;6.53;;
73150;SDS011;61354;50.758;6.106;2023-05-08T00:49:23;12.98;;;7.15;;
73150;SDS011;61354;50.758;6.106;2023-05-08T00:51:50;10.52;;;7.35;;
73150;SDS011;61354;50.758;6.106;2023-05-08T00:54:18;11.15;;;7.38;;
73150;SDS011;61354;50.758;6.106;2023-05-08T00:56:44;11.90;;;7.70;;
73150;SDS011;61354;50.758;6.106;2023-05-08T00:59:12;10.20;;;6.40;;
73150;SDS011;61354;50.758;6.106;2023-05-08T01:01:38;10.57;;;7.00;;
73150;SDS011;61354;50.758;6.106;2023-05-08T01:04:05;10.77;;;6.82;;
73150;SDS011;61354;50.758;6.106;2023-05-08T01:06:31;10.73;;;7.05;;
73150;SDS011;61354;50.758;6.106;2023-05-08T01:08:58;9.23;;;6.78;;
73150;SDS011;61354;50.758;6.106;2023-05-08T01:11:30;11.02;;;7.03;;
73150;SDS011;61354;50.758;6.106;2023-05-08T01:16:44;11.18;;;6.82;;
73150;SDS011;61354;50.758;6.106;2023-05-08T01:21:49;9.55;;;6.30;;
73150;SDS011;61354;50.758;6.106;2023-05-08T01:32:42;10.07;;;6.55;;
73150;SDS011;61354;50.758;6.106;2023-05-08T01:35:22;10.07;;;7.13;;
73150;SDS011;61354;50.758;6.106;2023-05-08T01:40:36;11.10;;;7.55;;
73150;SDS011;61354;50.758;6.106;2023-05-08T01:43:17;10.23;;;6.88;;
73150;SDS011;61354;50.758;6.106;2023-05-08T01:45:44;11.20;;;7.25;;
73150;SDS011;61354;50.758;6.106;2023-05-08T01:48:14;11.02;;;7.18;;
73150;SDS011;61354;50.758;6.106;2023-05-08T01:50:47;10.73;;;7.35;;
73150;SDS011;61354;50.758;6.106;2023-05-08T01:53:23;10.93;;;7.32;;
73150;SDS011;61354;50.758;6.106;2023-05-08T01:55:56;9.25;;;6.82;;
73150;SDS011;61354;50.758;6.106;2023-05-08T01:58:24;10.20;;;6.80;;
73150;SDS011;61354;50.758;6.106;2023-05-08T02:00:52;11.43;;;6.68;;
73150;SDS011;61354;50.758;6.106;2023-05-08T02:03:19;10.10;;;6.75;;
73150;SDS011;61354;50.758;6.106;2023-05-08T02:05:47;9.65;;;6.80;;
73150;SDS011;61354;50.758;6.106;2023-05-08T02:08:16;10.50;;;7.35;;
73150;SDS011;61354;50.758;6.106;2023-05-08T02:10:45;10.48;;;6.47;;
73150;SDS011;61354;50.758;6.106;2023-05-08T02:13:13;10.02;;;6.75;;
73150;SDS011;61354;50.758;6.106;2023-05-08T02:15:43;10.63;;;6.88;;
73150;SDS011;61354;50.758;6.106;2023-05-08T02:18:11;9.35;;;6.78;;
73150;SDS011;61354;50.758;6.106;2023-05-08T02:20:40;10.23;;;7.05;;
73150;SDS011;61354;50.758;6.106;2023-05-08T02:23:06;11.95;;;7.03;;
73150;SDS011;61354;50.758;6.106;2023-05-08T02:25:32;9.82;;;7.32;;
73150;SDS011;61354;50.758;6.106;2023-05-08T02:28:00;10.43;;;7.35;;
73150;SDS011;61354;50.758;6.106;2023-05-08T02:30:26;10.57;;;7.03;;
73150;SDS011;61354;50.758;6.106;2023-05-08T02:32:53;11.57;;;7.30;;
73150;SDS011;61354;50.758;6.106;2023-05-08T02:35:21;10.50;;;7.35;;
73150;SDS011;61354;50.758;6.106;2023-05-08T02:37:50;10.55;;;7.45;;
73150;SDS011;61354;50.758;6.106;2023-05-08T02:40:19;11.23;;;6.97;;
73150;SDS011;61354;50.758;6.106;2023-05-08T02:42:47;10.60;;;7.10;;
73150;SDS011;61354;50.758;6.106;2023-05-08T02:45:13;9.43;;;7.00;;
73150;SDS011;61354;50.758;6.106;2023-05-08T02:50:26;10.32;;;7.55;;
73150;SDS011;61354;50.758;6.106;2023-05-08T02:53:08;11.73;;;7.95;;
73150;SDS011;61354;50.758;6.106;2023-05-08T02:55:51;10.85;;;7.90;;
73150;SDS011;61354;50.758;6.106;2023-05-08T02:58:21;11.02;;;7.85;;
73150;SDS011;61354;50.758;6.106;2023-05-08T03:00:55;13.00;;;8.68;;
73150;SDS011;61354;50.758;6.106;2023-05-08T03:03:30;10.75;;;7.68;;
73150;SDS011;61354;50.758;6.106;2023-05-08T03:06:02;10.88;;;7.82;;
73150;SDS011;61354;50.758;6.106;2023-05-08T03:08:36;12.73;;;8.38;;
73150;SDS011;61354;50.758;6.106;2023-05-08T03:11:03;11.90;;;8.10;;
73150;SDS011;61354;50.758;6.106;2023-05-08T03:13:33;10.45;;;7.82;;
73150;SDS011;61354;50.758;6.106;2023-05-08T03:16:03;13.85;;;8.25;;
73150;SDS011;61354;50.758;6.106;2023-05-08T03:18:32;11.80;;;8.15;;
73150;SDS011;61354;50.758;6.106;2023-05-08T03:21:01;10.57;;;7.63;;
73150;SDS011;61354;50.758;6.106;2023-05-08T03:23:28;11.52;;;7.97;;
73150;SDS011;61354;50.758;6.106;2023-05-08T03:25:57;10.70;;;8.00;;
73150;SDS011;61354;50.758;6.106;2023-05-08T03:28:23;11.27;;;7.65;;
73150;SDS011;61354;50.758;6.106;2023-05-08T03:30:50;12.07;;;7.68;;
73150;SDS011;61354;50.758;6.106;2023-05-08T03:33:16;9.93;;;7.28;;
73150;SDS011;61354;50.758;6.106;2023-05-08T03:35:43;9.60;;;7.10;;
73150;SDS011;61354;50.758;6.106;2023-05-08T03:38:10;11.38;;;8.00;;
73150;SDS011;61354;50.758;6.106;2023-05-08T03:40:36;10.23;;;7.50;;
73150;SDS011;61354;50.758;6.106;2023-05-08T03:43:06;11.10;;;8.15;;
73150;SDS011;61354;50.758;6.106;2023-05-08T03:45:37;10.55;;;7.63;;
73150;SDS011;61354;50.758;6.106;2023-05-08T03:48:04;11.85;;;8.35;;
73150;SDS011;61354;50.758;6.106;2023-05-08T03:50:31;10.73;;;7.85;;
73150;SDS011;61354;50.758;6.106;2023-05-08T03:52:59;11.25;;;7.68;;
73150;SDS011;61354;50.758;6.106;2023-05-08T03:55:25;15.13;;;9.40;;
73150;SDS011;61354;50.758;6.106;2023-05-08T03:58:04;12.30;;;8.55;;
73150;SDS011;61354;50.758;6.106;2023-05-08T04:06:09;12.23;;;8.88;;
73150;SDS011;61354;50.758;6.106;2023-05-08T04:08:47;11.75;;;9.05;;
73150;SDS011;61354;50.758;6.106;2023-05-08T04:11:43;13.18;;;9.10;;
73150;SDS011;61354;50.758;6.106;2023-05-08T04:14:18;16.17;;;9.35;;
73150;SDS011;61354;50.758;6.106;2023-05-08T04:19:23;13.10;;;8.75;;
73150;SDS011;61354;50.758;6.106;2023-05-08T04:21:55;13.55;;;8.93;;
73150;SDS011;61354;50.758;6.106;2023-05-08T04:24:24;13.13;;;8.98;;
73150;SDS011;61354;50.758;6.106;2023-05-08T04:26:52;12.85;;;10.18;;
73150;SDS011;61354;50.758;6.106;2023-05-08T04:29:18;14.18;;;10.25;;
73150;SDS011;61354;50.758;6.106;2023-05-08T04:31:44;15.07;;;10.05;;
73150;SDS011;61354;50.758;6.106;2023-05-08T04:34:11;13.80;;;9.43;;
73150;SDS011;61354;50.758;6.106;2023-05-08T04:36:36;12.45;;;9.75;;
73150;SDS011;61354;50.758;6.106;2023-05-08T04:39:02;13.50;;;9.55;;
73150;SDS011;61354;50.758;6.106;2023-05-08T04:41:29;15.70;;;10.50;;
73150;SDS011;61354;50.758;6.106;2023-05-08T04:43:54;14.40;;;10.20;;
73150;SDS011;61354;50.758;6.106;2023-05-08T04:46:21;14.43;;;9.60;;
73150;SDS011;61354;50.758;6.106;2023-05-08T04:48:48;16.67;;;10.73;;
73150;SDS011;61354;50.758;6.106;2023-05-08T04:51:14;17.83;;;11.20;;
73150;SDS011;61354;50.758;6.106;2023-05-08T04:53:40;15.60;;;10.75;;
73150;SDS011;61354;50.758;6.106;2023-05-08T04:56:05;15.13;;;10.68;;
73150;SDS011;61354;50.758;6.106;2023-05-08T04:58:31;18.13;;;10.65;;
73150;SDS011;61354;50.758;6.106;2023-05-08T05:01:00;15.50;;;10.63;;
73150;SDS011;61354;50.758;6.106;2023-05-08T05:03:26;15.45;;;10.57;;
73150;SDS011;61354;50.758;6.106;2023-05-08T05:05:58;15.15;;;10.55;;
73150;SDS011;61354;50.758;6.106;2023-05-08T05:08:25;14.95;;;10.32;;
73150;SDS011;61354;50.758;6.106;2023-05-08T05:10:51;16.80;;;11.32;;
73150;SDS011;61354;50.758;6.106;2023-05-08T05:13:17;15.85;;;10.80;;
73150;SDS011;61354;50.758;6.106;2023-05-08T05:15:43;16.05;;;11.13;;
73150;SDS011;61354;50.758;6.106;2023-05-08T05:18:09;17.63;;;11.45;;
73150;SDS011;61354;50.758;6.106;2023-05-08T05:20:35;15.85;;;11.43;;
73150;SDS011;61354;50.758;6.106;2023-05-08T05:23:01;17.60;;;12.10;;
73150;SDS011;61354;50.758;6.106;2023-05-08T05:25:28;14.82;;;10.38;;
73150;SDS011;61354;50.758;6.106;2023-05-08T05:27:53;15.02;;;11.70;;
73150;SDS011;61354;50.758;6.106;2023-05-08T05:30:19;18.20;;;11.70;;
73150;SDS011;61354;50.758;6.106;2023-05-08T05:32:44;16.40;;;11.60;;
73150;SDS011;61354;50.758;6.106;2023-05-08T05:35:10;18.92;;;11.52;;
73150;SDS011;61354;50.758;6.106;2023-05-08T05:37:35;15.10;;;11.05;;
73150;SDS011;61354;50.758;6.106;2023-05-08T05:40:01;17.92;;;11.52;;
73150;SDS011;61354;50.758;6.106;2023-05-08T05:42:27;18.40;;;11.85;;
73150;SDS011;61354;50.758;6.106;2023-05-08T05:44:53;16.33;;;11.27;;
73150;SDS011;61354;50.758;6.106;2023-05-08T05:47:18;18.25;;;11.85;;
73150;SDS011;61354;50.758;6.106;2023-05-08T05:49:44;17.02;;;11.60;;
73150;SDS011;61354;50.758;6.106;2023-05-08T05:52:11;18.08;;;12.23;;
73150;SDS011;61354;50.758;6.106;2023-05-08T05:54:37;17.42;;;11.70;;
73150;SDS011;61354;50.758;6.106;2023-05-08T05:57:03;17.55;;;12.07;;
73150;SDS011;61354;50.758;6.106;2023-05-08T05:59:29;18.95;;;12.32;;
73150;SDS011;61354;50.758;6.106;2023-05-08T06:01:54;18.52;;;12.68;;
73150;SDS011;61354;50.758;6.106;2023-05-08T06:04:20;18.50;;;12.43;;
73150;SDS011;61354;50.758;6.106;2023-05-08T06:06:46;18.90;;;12.73;;
73150;SDS011;61354;50.758;6.106;2023-05-08T06:09:11;20.08;;;12.50;;
73150;SDS011;61354;50.758;6.106;2023-05-08T06:11:37;20.88;;;12.70;;
73150;SDS011;61354;50.758;6.106;2023-05-08T06:14:02;17.67;;;12.52;;
73150;SDS011;61354;50.758;6.106;2023-05-08T06:16:28;19.38;;;12.95;;
73150;SDS011;61354;50.758;6.106;2023-05-08T06:18:55;19.33;;;12.90;;
73150;SDS011;61354;50.758;6.106;2023-05-08T06:21:20;19.08;;;12.18;;
73150;SDS011;61354;50.758;6.106;2023-05-08T06:23:46;18.60;;;12.00;;
73150;SDS011;61354;50.758;6.106;2023-05-08T06:26:11;17.35;;;11.93;;
73150;SDS011;61354;50.758;6.106;2023-05-08T06:28:37;19.77;;;12.35;;
73150;SDS011;61354;50.758;6.106;2023-05-08T06:31:03;19.80;;;12.38;;
73150;SDS011;61354;50.758;6.106;2023-05-08T06:33:28;19.60;;;11.93;;
73150;SDS011;61354;50.758;6.106;2023-05-08T06:35:54;19.02;;;11.75;;
73150;SDS011;61354;50.758;6.106;2023-05-08T06:38:20;18.10;;;11.20;;
73150;SDS011;61354;50.758;6.106;2023-05-08T06:40:45;17.55;;;11.45;;
73150;SDS011;61354;50.758;6.106;2023-05-08T06:43:12;18.70;;;11.65;;
73150;SDS011;61354;50.758;6.106;2023-05-08T06:45:38;20.85;;;12.13;;
73150;SDS011;61354;50.758;6.106;2023-05-08T06:48:04;24.63;;;12.80;;
73150;SDS011;61354;50.758;6.106;2023-05-08T06:50:30;19.65;;;12.85;;
73150;SDS011;61354;50.758;6.106;2023-05-08T06:52:55;20.95;;;12.40;;
73150;SDS011;61354;50.758;6.106;2023-05-08T06:55:21;20.50;;;13.45;;
73150;SDS011;61354;50.758;6.106;2023-05-08T06:57:47;20.15;;;13.07;;
73150;SDS011;61354;50.758;6.106;2023-05-08T07:00:12;18.77;;;12.27;;
73150;SDS011;61354;50.758;6.106;2023-05-08T07:02:38;19.75;;;12.05;;
73150;SDS011;61354;50.758;6.106;2023-05-08T07:05:04;22.52;;;13.35;;
73150;SDS011;61354;50.758;6.106;2023-05-08T07:07:30;20.45;;;12.45;;
73150;SDS011;61354;50.758;6.106;2023-05-08T07:09:56;20.25;;;12.65;;
73150;SDS011;61354;50.758;6.106;2023-05-08T07:12:21;21.88;;;12.25;;
73150;SDS011;61354;50.758;6.106;2023-05-08T07:14:47;18.75;;;12.68;;
73150;SDS011;61354;50.758;6.106;2023-05-08T07:17:12;24.88;;;14.18;;
73150;SDS011;61354;50.758;6.106;2023-05-08T07:19:38;22.50;;;12.90;;
73150;SDS011;61354;50.758;6.106;2023-05-08T07:22:04;24.27;;;14.05;;
73150;SDS011;61354;50.758;6.106;2023-05-08T07:24:30;20.75;;;13.23;;
73150;SDS011;61354;50.758;6.106;2023-05-08T07:26:56;20.67;;;12.60;;
73150;SDS011;61354;50.758;6.106;2023-05-08T07:29:24;21.83;;;13.70;;
73150;SDS011;61354;50.758;6.106;2023-05-08T07:31:51;21.48;;;13.20;;
73150;SDS011;61354;50.758;6.106;2023-05-08T07:34:16;20.40;;;12.98;;
73150;SDS011;61354;50.758;6.106;2023-05-08T07:36:42;21.92;;;12.60;;
73150;SDS011;61354;50.758;6.106;2023-05-08T07:39:08;24.30;;;13.00;;
73150;SDS011;61354;50.758;6.106;2023-05-08T07:41:33;21.05;;;12.82;;
73150;SDS011;61354;50.758;6.106;2023-05-08T07:44:01;21.88;;;12.52;;
73150;SDS011;61354;50.758;6.106;2023-05-08T07:46:27;20.55;;;11.52;;
73150;SDS011;61354;50.758;6.106;2023-05-08T07:48:53;20.27;;;12.32;;
73150;SDS011;61354;50.758;6.106;2023-05-08T07:51:18;21.20;;;13.57;;
73150;SDS011;61354;50.758;6.106;2023-05-08T07:53:44;22.00;;;13.40;;
73150;SDS011;61354;50.758;6.106;2023-05-08T07:56:10;23.70;;;14.20;;
73150;SDS011;61354;50.758;6.106;2023-05-08T07:58:35;24.52;;;13.50;;
73150;SDS011;61354;50.758;6.106;2023-05-08T08:01:01;26.88;;;14.68;;
73150;SDS011;61354;50.758;6.106;2023-05-08T08:03:27;23.58;;;14.25;;
73150;SDS011;61354;50.758;6.106;2023-05-08T08:05:53;24.58;;;13.98;;
73150;SDS011;61354;50.758;6.106;2023-05-08T08:08:19;24.58;;;14.52;;
73150;SDS011;61354;50.758;6.106;2023-05-08T08:10:45;22.73;;;14.32;;
73150;SDS011;61354;50.758;6.106;2023-05-08T08:13:11;27.08;;;14.35;;
73150;SDS011;61354;50.758;6.106;2023-05-08T08:15:36;25.05;;;13.63;;
73150;SDS011;61354;50.758;6.106;2023-05-08T08:18:02;23.55;;;13.88;;
73150;SDS011;61354;50.758;6.106;2023-05-08T08:20:27;25.02;;;15.00;;
73150;SDS011;61354;50.758;6.106;2023-05-08T08:22:53;22.35;;;14.13;;
73150;SDS011;61354;50.758;6.106;2023-05-08T08:25:19;23.45;;;13.70;;
73150;SDS011;61354;50.758;6.106;2023-05-08T08:27:45;24.13;;;14.45;;
73150;SDS011;61354;50.758;6.106;2023-05-08T08:30:10;21.35;;;12.70;;
73150;SDS011;61354;50.758;6.106;2023-05-08T08:32:36;25.33;;;12.65;;
73150;SDS011;61354;50.758;6.106;2023-05-08T08:35:01;27.23;;;14.27;;
73150;SDS011;61354;50.758;6.106;2023-05-08T08:37:27;24.98;;;13.80;;
73150;SDS011;61354;50.758;6.106;2023-05-08T08:39:53;24.95;;;14.60;;
73150;SDS011;61354;50.758;6.106;2023-05-08T08:42:19;24.17;;;12.68;;
73150;SDS011;61354;50.758;6.106;2023-05-08T08:44:44;23.00;;;13.63;;
73150;SDS011;61354;50.758;6.106;2023-05-08T08:47:10;25.52;;;13.80;;
73150;SDS011;61354;50.758;6.106;2023-05-08T08:49:40;26.92;;;15.43;;
73150;SDS011;61354;50.758;6.106;2023-05-08T08:55:01;26.20;;;14.02;;
73150;SDS011;61354;50.758;6.106;2023-05-08T08:57:31;27.27;;;14.68;;
73150;SDS011;61354;50.758;6.106;2023-05-08T08:59:58;28.83;;;15.30;;
73150;SDS011;61354;50.758;6.106;2023-05-08T09:02:28;27.73;;;15.02;;
73150;SDS011;61354;50.758;6.106;2023-05-08T09:04:55;28.50;;;15.48;;
73150;SDS011;61354;50.758;6.106;2023-05-08T09:07:22;29.95;;;14.93;;
73150;SDS011;61354;50.758;6.106;2023-05-08T09:09:48;30.77;;;15.30;;
73150;SDS011;61354;50.758;6.106;2023-05-08T09:12:15;28.77;;;15.48;;
73150;SDS011;61354;50.758;6.106;2023-05-08T09:14:40;31.05;;;16.45;;
73150;SDS011;61354;50.758;6.106;2023-05-08T09:17:06;28.77;;;15.20;;
73150;SDS011;61354;50.758;6.106;2023-05-08T09:19:33;26.15;;;14.07;;
73150;SDS011;61354;50.758;6.106;2023-05-08T09:21:59;26.38;;;14.10;;
73150;SDS011;61354;50.758;6.106;2023-05-08T09:24:25;25.33;;;14.32;;
73150;SDS011;61354;50.758;6.106;2023-05-08T09:27:21;26.52;;;14.35;;
73150;SDS011;61354;50.758;6.106;2023-05-08T09:30:21;28.38;;;15.02;;
73150;SDS011;61354;50.758;6.106;2023-05-08T09:32:41;26.63;;;14.45;;
73150;SDS011;61354;50.758;6.106;2023-05-08T09:37:39;24.75;;;13.20;;
73150;SDS011;61354;50.758;6.106;2023-05-08T09:40:12;24.67;;;13.50;;
73150;SDS011;61354;50.758;6.106;2023-05-08T09:42:39;30.02;;;14.45;;
73150;SDS011;61354;50.758;6.106;2023-05-08T09:45:05;25.55;;;14.45;;
73150;SDS011;61354;50.758;6.106;2023-05-08T09:47:32;24.90;;;14.10;;
73150;SDS011;61354;50.758;6.106;2023-05-08T09:50:03;22.77;;;13.15;;
73150;SDS011;61354;50.758;6.106;2023-05-08T09:52:31;24.80;;;14.82;;
73150;SDS011;61354;50.758;6.106;2023-05-08T09:57:25;25.35;;;13.98;;
73150;SDS011;61354;50.758;6.106;2023-05-08T09:59:51;23.05;;;12.85;;
73150;SDS011;61354;50.758;6.106;2023-05-08T10:02:27;20.90;;;12.57;;
73150;SDS011;61354;50.758;6.106;2023-05-08T10:04:53;21.08;;;12.10;;
73150;SDS011;61354;50.758;6.106;2023-05-08T10:07:29;21.35;;;12.02;;
73150;SDS011;61354;50.758;6.106;2023-05-08T10:09:59;22.75;;;12.07;;
73150;SDS011;61354;50.758;6.106;2023-05-08T10:12:29;20.35;;;11.68;;
73150;SDS011;61354;50.758;6.106;2023-05-08T10:14:55;22.45;;;12.23;;
73150;SDS011;61354;50.758;6.106;2023-05-08T10:20:27;24.05;;;12.20;;
73150;SDS011;61354;50.758;6.106;2023-05-08T10:22:54;24.83;;;13.35;;
73150;SDS011;61354;50.758;6.106;2023-05-08T10:25:21;26.92;;;13.52;;
73150;SDS011;61354;50.758;6.106;2023-05-08T10:27:54;23.70;;;13.05;;
73150;SDS011;61354;50.758;6.106;2023-05-08T10:30:27;24.75;;;14.80;;
73150;SDS011;61354;50.758;6.106;2023-05-08T10:32:55;24.38;;;13.48;;
73150;SDS011;61354;50.758;6.106;2023-05-08T10:35:23;24.40;;;13.13;;
73150;SDS011;61354;50.758;6.106;2023-05-08T10:37:49;24.23;;;13.82;;
73150;SDS011;61354;50.758;6.106;2023-05-08T10:40:16;25.65;;;13.00;;
73150;SDS011;61354;50.758;6.106;2023-05-08T10:42:45;24.83;;;14.27;;
73150;SDS011;61354;50.758;6.106;2023-05-08T10:45:11;25.27;;;14.57;;
73150;SDS011;61354;50.758;6.106;2023-05-08T10:52:53;25.52;;;13.43;;
73150;SDS011;61354;50.758;6.106;2023-05-08T11:03:22;27.25;;;13.60;;
73150;SDS011;61354;50.758;6.106;2023-05-08T11:05:49;23.30;;;14.13;;
73150;SDS011;61354;50.758;6.106;2023-05-08T11:08:19;22.15;;;12.43;;
73150;SDS011;61354;50.758;6.106;2023-05-08T11:11:36;23.45;;;13.15;;
73150;SDS011;61354;50.758;6.106;2023-05-08T11:16:08;21.52;;;12.35;;
73150;SDS011;61354;50.758;6.106;2023-05-08T11:18:35;26.27;;;13.07;;
73150;SDS011;61354;50.758;6.106;2023-05-08T11:21:04;24.67;;;13.43;;
73150;SDS011;61354;50.758;6.106;2023-05-08T11:23:34;25.30;;;14.32;;
73150;SDS011;61354;50.758;6.106;2023-05-08T11:26:04;24.15;;;13.77;;
73150;SDS011;61354;50.758;6.106;2023-05-08T11:28:40;26.38;;;13.15;;
73150;SDS011;61354;50.758;6.106;2023-05-08T11:31:21;23.75;;;14.15;;
73150;SDS011;61354;50.758;6.106;2023-05-08T11:33:47;23.70;;;13.73;;
73150;SDS011;61354;50.758;6.106;2023-05-08T11:36:16;25.58;;;13.38;;
73150;SDS011;61354;50.758;6.106;2023-05-08T11:39:04;23.95;;;14.18;;
73150;SDS011;61354;50.758;6.106;2023-05-08T11:41:36;22.23;;;12.68;;
73150;SDS011;61354;50.758;6.106;2023-05-08T11:46:33;23.83;;;13.38;;
73150;SDS011;61354;50.758;6.106;2023-05-08T11:49:02;21.48;;;12.88;;
73150;SDS011;61354;50.758;6.106;2023-05-08T11:51:31;22.23;;;12.70;;
73150;SDS011;61354;50.758;6.106;2023-05-08T11:53:58;19.67;;;12.50;;
73150;SDS011;61354;50.758;6.106;2023-05-08T11:56:24;22.33;;;13.00;;
73150;SDS011;61354;50.758;6.106;2023-05-08T12:02:09;21.98;;;12.40;;
73150;SDS011;61354;50.758;6.106;2023-05-08T12:04:44;22.80;;;13.30;;
73150;SDS011;61354;50.758;6.106;2023-05-08T12:07:10;22.30;;;12.68;;
73150;SDS011;61354;50.758;6.106;2023-05-08T12:09:36;21.02;;;11.95;;
73150;SDS011;61354;50.758;6.106;2023-05-08T12:12:02;22.00;;;12.48;;
73150;SDS011;61354;50.758;6.106;2023-05-08T12:14:28;21.38;;;13.25;;
73150;SDS011;61354;50.758;6.106;2023-05-08T12:16:54;26.83;;;14.30;;
73150;SDS011;61354;50.758;6.106;2023-05-08T12:19:19;28.77;;;13.85;;
73150;SDS011;61354;50.758;6.106;2023-05-08T12:21:45;22.67;;;12.30;;
73150;SDS011;61354;50.758;6.106;2023-05-08T12:24:14;25.52;;;13.90;;
73150;SDS011;61354;50.758;6.106;2023-05-08T12:26:46;24.60;;;13.75;;
73150;SDS011;61354;50.758;6.106;2023-05-08T12:29:12;24.33;;;14.18;;
73150;SDS011;61354;50.758;6.106;2023-05-08T12:31:38;24.92;;;14.68;;
73150;SDS011;61354;50.758;6.106;2023-05-08T12:34:04;23.25;;;13.50;;
73150;SDS011;61354;50.758;6.106;2023-05-08T12:36:33;28.10;;;15.00;;
73150;SDS011;61354;50.758;6.106;2023-05-08T12:39:10;25.05;;;14.27;;
73150;SDS011;61354;50.758;6.106;2023-05-08T12:41:49;29.67;;;15.38;;
73150;SDS011;61354;50.758;6.106;2023-05-08T12:44:16;26.48;;;15.05;;
73150;SDS011;61354;50.758;6.106;2023-05-08T12:46:50;21.58;;;13.18;;
73150;SDS011;61354;50.758;6.106;2023-05-08T12:51:49;21.38;;;13.60;;
73150;SDS011;61354;50.758;6.106;2023-05-08T12:54:15;20.52;;;12.25;;
73150;SDS011;61354;50.758;6.106;2023-05-08T12:56:43;18.15;;;11.63;;
73150;SDS011;61354;50.758;6.106;2023-05-08T12:59:09;18.23;;;10.30;;
73150;SDS011;61354;50.758;6.106;2023-05-08T13:01:34;17.60;;;11.00;;
73150;SDS011;61354;50.758;6.106;2023-05-08T13:04:00;17.20;;;10.05;;
73150;SDS011;61354;50.758;6.106;2023-05-08T13:06:27;15.77;;;10.40;;
73150;SDS011;61354;50.758;6.106;2023-05-08T13:08:53;15.05;;;10.48;;
73150;SDS011;61354;50.758;6.106;2023-05-08T13:11:28;16.15;;;10.85;;
73150;SDS011;61354;50.758;6.106;2023-05-08T13:13:58;14.40;;;9.95;;
73150;SDS011;61354;50.758;6.106;2023-05-08T13:16:24;13.93;;;9.63;;
73150;SDS011;61354;50.758;6.106;2023-05-08T13:18:50;17.30;;;10.45;;
73150;SDS011;61354;50.758;6.106;2023-05-08T13:21:15;16.48;;;10.88;;
73150;SDS011;61354;50.758;6.106;2023-05-08T13:23:41;16.23;;;10.85;;
73150;SDS011;61354;50.758;6.106;2023-05-08T13:26:07;16.20;;;10.50;;
73150;SDS011;61354;50.758;6.106;2023-05-08T13:28:33;16.27;;;10.45;;
73150;SDS011;61354;50.758;6.106;2023-05-08T13:30:58;14.98;;;10.20;;
73150;SDS011;61354;50.758;6.106;2023-05-08T13:33:24;14.38;;;10.05;;
73150;SDS011;61354;50.758;6.106;2023-05-08T13:35:50;13.75;;;9.25;;
73150;SDS011;61354;50.758;6.106;2023-05-08T13:38:16;12.93;;;9.55;;
73150;SDS011;61354;50.758;6.106;2023-05-08T13:40:41;15.07;;;9.70;;
73150;SDS011;61354;50.758;6.106;2023-05-08T13:43:07;13.57;;;8.68;;
73150;SDS011;61354;50.758;6.106;2023-05-08T13:45:32;12.98;;;9.65;;
73150;SDS011;61354;50.758;6.106;2023-05-08T13:47:58;13.02;;;9.48;;
73150;SDS011;61354;50.758;6.106;2023-05-08T13:50:23;13.80;;;9.50;;
73150;SDS011;61354;50.758;6.106;2023-05-08T13:52:49;14.50;;;9.52;;
73150;SDS011;61354;50.758;6.106;2023-05-08T13:55:15;15.05;;;10.98;;
73150;SDS011;61354;50.758;6.106;2023-05-08T13:57:41;14.50;;;9.38;;
73150;SDS011;61354;50.758;6.106;2023-05-08T14:00:07;15.00;;;9.50;;
73150;SDS011;61354;50.758;6.106;2023-05-08T14:02:34;14.15;;;9.85;;
73150;SDS011;61354;50.758;6.106;2023-05-08T14:05:01;13.38;;;9.20;;
73150;SDS011;61354;50.758;6.106;2023-05-08T14:07:28;13.75;;;9.68;;
73150;SDS011;61354;50.758;6.106;2023-05-08T14:09:54;13.35;;;8.73;;
73150;SDS011;61354;50.758;6.106;2023-05-08T14:12:20;13.68;;;9.05;;
73150;SDS011;61354;50.758;6.106;2023-05-08T14:14:45;14.43;;;9.32;;
73150;SDS011;61354;50.758;6.106;2023-05-08T14:17:11;11.93;;;9.30;;
73150;SDS011;61354;50.758;6.106;2023-05-08T14:19:36;12.82;;;9.07;;
73150;SDS011;61354;50.758;6.106;2023-05-08T14:22:02;12.82;;;9.13;;
73150;SDS011;61354;50.758;6.106;2023-05-08T14:24:28;14.35;;;9.23;;
73150;SDS011;61354;50.758;6.106;2023-05-08T14:26:54;11.93;;;8.65;;
73150;SDS011;61354;50.758;6.106;2023-05-08T14:29:20;12.82;;;8.60;;
73150;SDS011;61354;50.758;6.106;2023-05-08T14:31:45;10.27;;;7.50;;
73150;SDS011;61354;50.758;6.106;2023-05-08T14:34:11;11.43;;;8.32;;
73150;SDS011;61354;50.758;6.106;2023-05-08T14:36:37;12.15;;;8.05;;
73150;SDS011;61354;50.758;6.106;2023-05-08T14:39:02;14.32;;;8.07;;
73150;SDS011;61354;50.758;6.106;2023-05-08T14:41:29;11.30;;;8.02;;
73150;SDS011;61354;50.758;6.106;2023-05-08T14:43:55;12.07;;;8.73;;
73150;SDS011;61354;50.758;6.106;2023-05-08T14:46:22;11.65;;;8.45;;
73150;SDS011;61354;50.758;6.106;2023-05-08T14:48:48;11.70;;;8.15;;
73150;SDS011;61354;50.758;6.106;2023-05-08T14:51:14;10.55;;;7.78;;
73150;SDS011;61354;50.758;6.106;2023-05-08T14:53:40;11.85;;;7.68;;
73150;SDS011;61354;50.758;6.106;2023-05-08T14:56:06;10.45;;;6.97;;
73150;SDS011;61354;50.758;6.106;2023-05-08T14:58:31;10.98;;;6.72;;
73150;SDS011;61354;50.758;6.106;2023-05-08T15:00:57;9.02;;;6.65;;
73150;SDS011;61354;50.758;6.106;2023-05-08T15:03:23;9.98;;;7.25;;
73150;SDS011;61354;50.758;6.106;2023-05-08T15:05:49;8.82;;;5.93;;
73150;SDS011;61354;50.758;6.106;2023-05-08T15:08:14;9.55;;;5.97;;
73150;SDS011;61354;50.758;6.106;2023-05-08T15:10:40;8.05;;;5.57;;
73150;SDS011;61354;50.758;6.106;2023-05-08T15:13:06;8.45;;;5.80;;
73150;SDS011;61354;50.758;6.106;2023-05-08T15:15:43;8.70;;;5.15;;
73150;SDS011;61354;50.758;6.106;2023-05-08T15:18:09;7.18;;;4.82;;
73150;SDS011;61354;50.758;6.106;2023-05-08T15:20:35;7.35;;;4.75;;
73150;SDS011;61354;50.758;6.106;2023-05-08T15:23:00;6.47;;;4.80;;
73150;SDS011;61354;50.758;6.106;2023-05-08T15:25:26;7.05;;;5.10;;
73150;SDS011;61354;50.758;6.106;2023-05-08T15:27:51;7.22;;;5.57;;
73150;SDS011;61354;50.758;6.106;2023-05-08T15:30:18;7.25;;;5.55;;
73150;SDS011;61354;50.758;6.106;2023-05-08T15:32:44;6.43;;;4.30;;